Westchester, IL (60154)

12:33 AM CST en Enero 28, 2015 (GMT -0600)
Mr. Hammes's Weather | Change Station
CLOSE
Current Station
Estación meteorológica personal
Location: Westchester, IL
Altura: 641 ft
Estaciones meteorológicas cercanas

Alt 641 ft 41.85 °N, 87.87 °W | Updated 30 seconds ago

Muy nublado
Muy nublado
21.6 ° F
Sensación térmica 22 ° F
N
0.0
Viento Variable Viento desde NE
Gusts 0.0 mph

Hoy
Alta -- | Baja -- ° F
--% Posibilidad de precipitaciones
Ayer
Alta -- | Baja -- ° F
Precip. -- pul
7:08 AM 5:01 PM
Cuarto creciente, 61% visible
Presión 30.31 pul
Visibilidad 10.0 Millas
Nubes Baja 2200 ft
Muy nublado 18000 ft
Vientos helados 22 ° F
Punto de rocío 8 ° F
Humedad 55%
Precipitaciones 0.00 pul
Espesor de la nieve No disponible.
UV 0 de una escala de 12
Polen .10 de una escala de 12
Calidad del aire No disponible.
Flu Activity No disponible.
METAR KMDW 280553Z 00000KT 10SM FEW022 BKN180 M03/M07 A3026 RMK AO2 SLP262 T10331067 11022 21044 400061044 51008

More Conditions Fewer Conditions

Presión 30.31 pul
Visibilidad 10.0 Millas
Nubes Baja 2200 ft
Muy nublado 18000 ft
Vientos helados 22 ° F
Punto de rocío 8 ° F
Humedad 55%
Precipitaciones 0.00 pul
Espesor de la nieve No disponible.
UV 0 de una escala de 12
Polen .10 de una escala de 12
Calidad del aire No disponible.
Flu Activity No disponible.
METAR KMDW 280553Z 00000KT 10SM FEW022 BKN180 M03/M07 A3026 RMK AO2 SLP262 T10331067 11022 21044 400061044 51008

More Conditions Fewer Conditions

10-Day Weather Forecast

Almanac

Astronomía

Jan. 28, 2015 Salida Puesta
Hora real
Crepúsculo civil
Crepúsculo náutico
Crepúsculo astronómico
Luna
Horas de luz
Horas de luz
Tomorrow will be .
, % of the Moon is Illuminated

Extremos de hoy

Máximos del estado Bajos del estado

Community

WunderPhotos

Upload Photos

1,791,112 ¡fotos cargadas!

WunderBlogs® & News

Nearby

Calidad del aire

  Calidad del aire Índice AQ Contaminante
Not available.

Grosos de nieve

Estación Profundido Altura

Actividad de terremotos

Ciudad Distance Mag. Tiempo y dato
Magnitud mínima muestra es 2,5.

Temperaturas de aguas costeras

Lugar Temperatura

Estaciones meteorológicas cercanas